createdAt,value
2023-01-11T00:01:06.371Z,9.95
2023-01-11T00:03:33.850Z,8.80
2023-01-11T00:06:00.471Z,9.95
2023-01-11T00:08:27.816Z,8.82
2023-01-11T00:10:55.005Z,9.82
2023-01-11T00:13:21.639Z,16.20
2023-01-11T00:15:48.109Z,6.35
2023-01-11T00:18:14.532Z,6.45
2023-01-11T00:20:41.620Z,6.95
2023-01-11T00:23:08.726Z,7.10
2023-01-11T00:25:35.357Z,10.55
2023-01-11T00:28:01.747Z,8.25
2023-01-11T00:30:28.127Z,5.55
2023-01-11T00:32:58.979Z,8.90
2023-01-11T00:35:27.033Z,10.27
2023-01-11T00:37:54.522Z,5.05
2023-01-11T00:40:20.980Z,8.20
2023-01-11T00:43:05.748Z,6.53
2023-01-11T00:45:50.766Z,7.93
2023-01-11T00:48:17.571Z,4.95
2023-01-11T00:50:44.030Z,8.40
2023-01-11T00:53:10.554Z,8.95
2023-01-11T00:55:36.915Z,7.00
2023-01-11T00:58:03.847Z,5.63
2023-01-11T01:00:30.658Z,4.28
2023-01-11T01:02:57.412Z,10.50
2023-01-11T01:05:24.114Z,8.05
2023-01-11T01:07:51.783Z,8.00
2023-01-11T01:10:19.128Z,7.28
2023-01-11T01:13:04.638Z,5.57
2023-01-11T01:15:32.135Z,5.72
2023-01-11T01:17:58.546Z,5.45
2023-01-11T01:20:25.930Z,9.80
2023-01-11T01:22:53.982Z,9.35
2023-01-11T01:25:20.427Z,6.32
2023-01-11T01:27:46.816Z,7.18
2023-01-11T01:30:14.012Z,6.63
2023-01-11T01:32:40.400Z,6.13
2023-01-11T01:35:07.418Z,7.45
2023-01-11T01:37:33.912Z,5.13
2023-01-11T01:40:00.309Z,6.55
2023-01-11T01:42:26.756Z,6.82
2023-01-11T01:45:16.755Z,6.18
2023-01-11T01:48:00.988Z,9.38
2023-01-11T01:50:32.329Z,6.78
2023-01-11T01:53:05.178Z,8.20
2023-01-11T01:55:37.786Z,10.98
2023-01-11T01:58:11.428Z,4.40
2023-01-11T02:03:06.377Z,5.80
2023-01-11T02:05:32.793Z,11.35
2023-01-11T02:08:03.019Z,12.65
2023-01-11T02:10:29.455Z,10.27
2023-01-11T02:13:00.714Z,6.07
2023-01-11T02:15:28.613Z,6.25
2023-01-11T02:17:55.249Z,5.15
2023-01-11T02:20:33.585Z,9.50
2023-01-11T02:23:24.373Z,5.20
2023-01-11T02:25:56.736Z,5.97
2023-01-11T02:28:38.565Z,6.45
2023-01-11T02:31:27.555Z,5.82
2023-01-11T02:34:07.467Z,6.97
2023-01-11T02:37:00.132Z,6.05
2023-01-11T02:39:52.044Z,7.75
2023-01-11T02:42:58.130Z,4.40
2023-01-11T02:45:43.307Z,8.10
2023-01-11T02:48:27.333Z,9.63
2023-01-11T02:51:02.273Z,7.72
2023-01-11T02:53:36.674Z,4.50
2023-01-11T02:56:09.702Z,10.68
2023-01-11T02:58:46.418Z,5.80
2023-01-11T03:01:13.466Z,6.25
2023-01-11T03:03:40.717Z,6.80
2023-01-11T03:06:31.829Z,7.22
2023-01-11T03:09:16.367Z,8.82
2023-01-11T03:12:06.360Z,3.70
2023-01-11T03:15:16.227Z,5.97
2023-01-11T03:17:58.927Z,10.05
2023-01-11T03:20:38.679Z,8.52
2023-01-11T03:23:18.970Z,6.55
2023-01-11T03:26:15.889Z,4.97
2023-01-11T03:29:05.880Z,6.90
2023-01-11T03:31:52.886Z,7.38
2023-01-11T03:34:24.037Z,12.50
2023-01-11T03:37:11.620Z,6.40
2023-01-11T03:40:07.736Z,5.90
2023-01-11T03:42:58.273Z,5.10
2023-01-11T03:45:26.790Z,6.53
2023-01-11T03:47:55.061Z,4.45
2023-01-11T03:50:23.184Z,3.55
2023-01-11T03:52:54.473Z,4.38
2023-01-11T03:55:26.671Z,2.95
2023-01-11T03:57:54.753Z,7.47
2023-01-11T04:00:22.423Z,4.85
2023-01-11T04:02:49.413Z,4.65
2023-01-11T04:05:15.807Z,3.15
2023-01-11T04:07:42.164Z,4.70
2023-01-11T04:10:09.249Z,2.45
2023-01-11T04:12:35.677Z,6.13
2023-01-11T04:15:03.212Z,3.05
2023-01-11T04:17:29.650Z,3.80
2023-01-11T04:19:56.721Z,4.22
2023-01-11T04:22:23.138Z,3.17
2023-01-11T04:24:49.780Z,5.15
2023-01-11T04:27:16.154Z,2.35
2023-01-11T04:29:42.543Z,2.08
2023-01-11T04:32:08.893Z,3.38
2023-01-11T04:34:38.648Z,2.90
2023-01-11T04:37:05.042Z,4.30
2023-01-11T04:39:31.439Z,3.10
2023-01-11T04:42:17.481Z,2.47
2023-01-11T04:44:45.765Z,3.10
2023-01-11T04:47:12.292Z,2.83
2023-01-11T04:49:42.166Z,4.63
2023-01-11T04:52:10.942Z,2.10
2023-01-11T04:54:37.932Z,2.17
2023-01-11T04:57:04.624Z,5.60
2023-01-11T04:59:31.594Z,3.47
2023-01-11T05:01:58.063Z,4.22
2023-01-11T05:04:24.965Z,2.42
2023-01-11T05:06:51.480Z,2.00
2023-01-11T05:09:18.640Z,1.67
2023-01-11T05:11:45.642Z,5.07
2023-01-11T05:14:15.360Z,3.92
2023-01-11T05:16:42.512Z,3.58
2023-01-11T05:19:10.878Z,2.10
2023-01-11T05:21:39.856Z,5.20
2023-01-11T05:24:12.677Z,1.42
2023-01-11T05:26:41.187Z,2.28
2023-01-11T05:29:16.208Z,3.47
2023-01-11T05:31:42.981Z,2.33
2023-01-11T05:34:12.726Z,2.25
2023-01-11T05:36:40.104Z,1.85
2023-01-11T05:39:06.645Z,2.10
2023-01-11T05:41:33.597Z,1.00
2023-01-11T05:44:19.305Z,0.88
2023-01-11T05:46:45.703Z,1.58
2023-01-11T05:49:13.699Z,0.80
2023-01-11T05:51:41.478Z,0.80
2023-01-11T05:54:11.896Z,1.67
2023-01-11T05:56:39.617Z,1.15
2023-01-11T05:59:06.123Z,1.42
2023-01-11T06:01:32.666Z,1.27
2023-01-11T06:03:59.232Z,1.05
2023-01-11T06:06:25.967Z,2.15
2023-01-11T06:08:52.481Z,2.00
2023-01-11T06:11:19.119Z,2.90
2023-01-11T06:13:45.602Z,0.98
2023-01-11T06:16:17.566Z,0.98
2023-01-11T06:18:46.639Z,0.70
2023-01-11T06:21:14.248Z,0.68
2023-01-11T06:23:45.068Z,0.50
2023-01-11T06:26:18.561Z,1.00
2023-01-11T06:28:45.068Z,1.20
2023-01-11T06:31:11.994Z,0.98
2023-01-11T06:33:39.008Z,3.03
2023-01-11T06:36:08.098Z,1.35
2023-01-11T06:38:35.531Z,1.27
2023-01-11T06:41:03.951Z,0.88
2023-01-11T06:43:31.592Z,2.55
2023-01-11T06:45:58.973Z,0.65
2023-01-11T06:48:27.550Z,1.63
2023-01-11T06:50:56.811Z,1.10
2023-01-11T06:53:26.741Z,1.25
2023-01-11T06:55:56.470Z,0.70
2023-01-11T06:58:23.787Z,0.60
2023-01-11T07:00:51.886Z,1.45
2023-01-11T07:03:20.852Z,1.73
2023-01-11T07:05:48.060Z,0.80
2023-01-11T07:08:14.788Z,2.92
2023-01-11T07:10:42.148Z,0.98
2023-01-11T07:13:08.564Z,1.90
2023-01-11T07:15:35.028Z,1.23
2023-01-11T07:18:03.074Z,1.70
2023-01-11T07:20:29.804Z,0.98
2023-01-11T07:22:58.402Z,0.77
2023-01-11T07:25:25.923Z,2.03
2023-01-11T07:27:59.989Z,2.03
2023-01-11T07:30:28.645Z,1.30
2023-01-11T07:32:57.586Z,0.93
2023-01-11T07:35:28.100Z,2.47
2023-01-11T07:37:55.580Z,2.75
2023-01-11T07:40:22.035Z,1.50
2023-01-11T07:43:08.455Z,1.02
2023-01-11T07:45:45.327Z,3.17
2023-01-11T07:48:13.177Z,0.93
2023-01-11T07:50:42.819Z,0.70
2023-01-11T07:53:10.793Z,1.27
2023-01-11T07:55:38.768Z,2.10
2023-01-11T07:58:06.523Z,2.33
2023-01-11T08:00:33.092Z,1.23
2023-01-11T08:03:01.184Z,1.67
2023-01-11T08:05:27.677Z,1.63
2023-01-11T08:07:54.061Z,3.47
2023-01-11T08:10:20.488Z,2.13
2023-01-11T08:13:07.666Z,1.20
2023-01-11T08:15:36.675Z,1.60
2023-01-11T08:18:06.555Z,1.90
2023-01-11T08:20:34.304Z,1.73
2023-01-11T08:23:05.732Z,2.55
2023-01-11T08:25:34.335Z,3.50
2023-01-11T08:28:02.160Z,1.17
2023-01-11T08:30:29.752Z,0.50
2023-01-11T08:32:57.432Z,0.80
2023-01-11T08:35:25.357Z,1.42
2023-01-11T08:37:51.811Z,1.15
2023-01-11T08:40:18.392Z,0.65
2023-01-11T08:42:44.859Z,0.98
2023-01-11T08:45:11.452Z,1.25
2023-01-11T08:47:49.609Z,0.82
2023-01-11T08:50:18.154Z,2.20
2023-01-11T08:52:45.095Z,1.35
2023-01-11T08:55:11.467Z,2.10
2023-01-11T08:57:38.099Z,1.63
2023-01-11T09:00:10.035Z,1.13
2023-01-11T09:02:36.516Z,0.90
2023-01-11T09:05:03.028Z,0.95
2023-01-11T09:07:29.434Z,1.83
2023-01-11T09:09:55.863Z,0.85
2023-01-11T09:12:22.248Z,1.92
2023-01-11T09:14:49.062Z,0.68
2023-01-11T09:17:15.536Z,1.85
2023-01-11T09:19:42.106Z,0.93
2023-01-11T09:22:08.503Z,5.47
2023-01-11T09:24:34.913Z,0.82
2023-01-11T09:27:01.543Z,3.65
2023-01-11T09:29:28.066Z,0.98
2023-01-11T09:31:54.492Z,0.88
2023-01-11T09:34:21.134Z,1.73
2023-01-11T09:36:49.009Z,0.75
2023-01-11T09:39:18.734Z,1.45
2023-01-11T09:42:13.565Z,2.80
2023-01-11T09:44:56.976Z,2.10
2023-01-11T09:47:40.878Z,0.98
2023-01-11T09:50:17.629Z,0.95
2023-01-11T09:52:51.197Z,0.98
2023-01-11T09:55:23.113Z,3.63
2023-01-11T09:58:22.948Z,1.55
2023-01-11T10:00:53.000Z,1.23
2023-01-11T10:03:30.463Z,0.40
2023-01-11T10:07:02.544Z,1.95
2023-01-11T10:18:23.666Z,0.70
2023-01-11T10:19:24.598Z,0.95
2023-01-11T10:21:54.575Z,1.30
2023-01-11T10:24:41.916Z,0.52
2023-01-11T10:27:20.992Z,1.63
2023-01-11T10:29:58.389Z,1.10
2023-01-11T10:32:59.958Z,6.22
2023-01-11T10:36:08.765Z,0.60
2023-01-11T10:39:06.704Z,1.20
2023-01-11T10:45:13.990Z,1.77
2023-01-11T10:47:54.144Z,2.65
2023-01-11T10:50:51.739Z,2.80
2023-01-11T10:53:28.220Z,4.32
2023-01-11T10:56:12.762Z,1.80
2023-01-11T10:59:08.491Z,4.18
2023-01-11T11:01:54.298Z,3.03
2023-01-11T11:04:44.969Z,1.05
2023-01-11T11:07:32.326Z,2.50
2023-01-11T11:10:28.863Z,0.50
2023-01-11T11:13:11.640Z,1.77
2023-01-11T11:15:50.626Z,1.40
2023-01-11T11:18:17.021Z,0.50
2023-01-11T11:20:44.223Z,2.22
2023-01-11T11:23:16.610Z,4.32
2023-01-11T11:25:48.487Z,6.72
2023-01-11T11:28:14.810Z,7.30
2023-01-11T11:30:46.888Z,4.13
2023-01-11T11:33:17.448Z,3.05
2023-01-11T11:35:46.324Z,4.45
2023-01-11T11:38:24.925Z,2.22
2023-01-11T11:41:12.250Z,2.08
2023-01-11T11:43:44.895Z,3.40
2023-01-11T11:46:18.811Z,3.60
2023-01-11T11:49:12.101Z,1.98
2023-01-11T11:51:41.063Z,3.65
2023-01-11T11:54:19.170Z,6.50
2023-01-11T11:56:45.863Z,3.70
2023-01-11T11:59:15.967Z,1.20
2023-01-11T12:01:47.173Z,4.70
2023-01-11T12:04:19.564Z,6.53
2023-01-11T12:06:52.733Z,9.75
2023-01-11T12:09:31.357Z,0.90
2023-01-11T12:11:58.559Z,2.33
2023-01-11T12:14:31.225Z,3.60
2023-01-11T12:16:58.880Z,7.63
2023-01-11T12:19:41.193Z,3.63
2023-01-11T12:22:22.653Z,2.58
2023-01-11T12:25:14.618Z,2.95
2023-01-11T12:27:46.970Z,1.58
2023-01-11T12:30:22.768Z,4.05
2023-01-11T12:33:19.292Z,4.43
2023-01-11T12:35:56.160Z,1.65
2023-01-11T12:38:35.882Z,3.92
2023-01-11T12:41:17.675Z,1.48
2023-01-11T12:44:01.208Z,2.72
2023-01-11T12:46:49.187Z,0.55
2023-01-11T12:49:39.491Z,0.60
2023-01-11T12:52:08.644Z,1.33
2023-01-11T12:55:04.521Z,3.38
2023-01-11T12:57:54.656Z,2.20
2023-01-11T13:01:04.440Z,1.23
2023-01-11T13:04:01.948Z,2.65
2023-01-11T13:06:42.104Z,1.65
2023-01-11T13:09:40.001Z,2.00
2023-01-11T13:12:18.577Z,5.45
2023-01-11T13:15:11.336Z,2.13
2023-01-11T13:17:49.799Z,0.88
2023-01-11T13:21:00.151Z,4.78
2023-01-11T13:23:56.957Z,2.17
2023-01-11T13:26:26.033Z,1.25
2023-01-11T13:29:01.489Z,6.80
2023-01-11T13:31:29.532Z,1.45
2023-01-11T13:34:05.631Z,2.90
2023-01-11T13:36:45.650Z,3.17
2023-01-11T13:39:32.190Z,6.45
2023-01-11T13:42:04.520Z,3.45
2023-01-11T13:44:37.344Z,2.13
2023-01-11T13:47:17.525Z,3.83
2023-01-11T13:50:00.384Z,1.20
2023-01-11T13:52:50.553Z,1.08
2023-01-11T13:55:26.630Z,1.58
2023-01-11T13:58:05.800Z,2.17
2023-01-11T14:00:40.448Z,2.13
2023-01-11T14:03:41.172Z,3.28
2023-01-11T14:06:42.191Z,2.78
2023-01-11T14:10:01.058Z,1.50
2023-01-11T14:13:00.104Z,1.77
2023-01-11T14:15:57.756Z,1.00
2023-01-11T14:18:44.497Z,0.88
2023-01-11T14:21:32.767Z,1.58
2023-01-11T14:24:00.942Z,2.00
2023-01-11T14:26:53.473Z,1.55
2023-01-11T14:29:41.126Z,2.30
2023-01-11T14:32:30.707Z,1.58
2023-01-11T14:35:07.622Z,2.33
2023-01-11T14:38:05.464Z,1.92
2023-01-11T14:40:50.339Z,2.05
2023-01-11T14:43:42.710Z,2.65
2023-01-11T14:46:21.305Z,1.88
2023-01-11T14:49:03.099Z,3.63
2023-01-11T14:51:44.667Z,2.22
2023-01-11T14:54:16.792Z,3.67
2023-01-11T14:56:43.140Z,2.60
2023-01-11T14:59:34.265Z,4.38
2023-01-11T15:02:03.944Z,3.22
2023-01-11T15:04:39.024Z,4.18
2023-01-11T15:07:31.359Z,3.25
2023-01-11T15:09:59.607Z,3.83
2023-01-11T15:12:37.727Z,3.72
2023-01-11T15:15:47.812Z,6.32
2023-01-11T15:18:20.429Z,9.82
2023-01-11T15:21:06.732Z,1.65
2023-01-11T15:23:38.183Z,3.17
2023-01-11T15:26:07.923Z,5.75
2023-01-11T15:28:47.841Z,7.75
2023-01-11T15:31:29.413Z,3.22
2023-01-11T15:34:01.520Z,9.07
2023-01-11T15:36:52.242Z,6.43
2023-01-11T15:39:40.448Z,5.63
2023-01-11T15:42:16.155Z,1.60
2023-01-11T15:45:16.565Z,3.45
2023-01-11T15:48:07.468Z,4.45
2023-01-11T15:50:52.231Z,3.05
2023-01-11T15:53:54.025Z,3.45
2023-01-11T15:56:37.337Z,3.45
2023-01-11T15:59:41.465Z,8.65
2023-01-11T16:02:13.953Z,2.75
2023-01-11T16:05:06.481Z,3.95
2023-01-11T16:07:42.878Z,5.80
2023-01-11T16:10:45.280Z,3.03
2023-01-11T16:13:49.103Z,10.45
2023-01-11T16:16:29.352Z,2.83
2023-01-11T16:19:05.411Z,4.95
2023-01-11T16:21:37.108Z,5.28
2023-01-11T16:24:15.533Z,6.05
2023-01-11T16:26:42.186Z,4.85
2023-01-11T16:29:18.654Z,9.15
2023-01-11T16:32:22.187Z,5.22
2023-01-11T16:34:52.013Z,9.68
2023-01-11T16:37:24.603Z,10.38
2023-01-11T16:39:56.641Z,7.10
2023-01-11T16:42:26.195Z,5.47
2023-01-11T16:45:00.427Z,10.38
2023-01-11T16:47:26.933Z,7.57
2023-01-11T16:50:19.590Z,7.50
2023-01-11T16:52:49.273Z,8.88
2023-01-11T16:55:19.078Z,11.85
2023-01-11T16:57:51.352Z,10.57
2023-01-11T17:00:32.958Z,11.60
2023-01-11T17:03:18.998Z,10.00
2023-01-11T17:06:09.775Z,11.85
2023-01-11T17:08:38.890Z,13.80
2023-01-11T17:11:19.781Z,12.88
2023-01-11T17:14:11.090Z,8.38
2023-01-11T17:16:47.668Z,6.88
2023-01-11T17:19:20.118Z,9.27
2023-01-11T17:21:59.331Z,5.63
2023-01-11T17:24:27.030Z,11.50
2023-01-11T17:26:59.211Z,13.15
2023-01-11T17:29:32.815Z,7.30
2023-01-11T17:32:03.121Z,8.75
2023-01-11T17:34:38.198Z,13.85
2023-01-11T17:37:11.167Z,10.10
2023-01-11T17:39:42.521Z,13.57
2023-01-11T17:42:31.656Z,14.65
2023-01-11T17:45:27.489Z,10.95
2023-01-11T17:47:54.935Z,13.63
2023-01-11T17:50:29.456Z,12.82
2023-01-11T17:53:04.868Z,14.38
2023-01-11T17:55:31.482Z,15.25
2023-01-11T17:58:13.419Z,15.25
2023-01-11T18:00:41.069Z,11.30
2023-01-11T18:03:18.570Z,10.73
2023-01-11T18:05:45.111Z,9.88
2023-01-11T18:08:20.646Z,14.82
2023-01-11T18:11:05.222Z,9.98
2023-01-11T18:13:36.737Z,10.80
2023-01-11T18:16:04.293Z,13.60
2023-01-11T18:18:48.267Z,16.45
2023-01-11T18:24:08.713Z,11.18
2023-01-11T18:26:36.735Z,8.75
2023-01-11T18:29:04.116Z,13.13
2023-01-11T18:31:31.270Z,15.10
2023-01-11T18:33:58.528Z,10.15
2023-01-11T18:36:29.828Z,15.57
2023-01-11T18:38:56.313Z,16.80
2023-01-11T18:41:42.615Z,16.20
2023-01-11T18:44:11.987Z,13.13
2023-01-11T18:46:38.386Z,21.65
2023-01-11T18:49:04.764Z,15.23
2023-01-11T18:51:35.673Z,21.67
2023-01-11T18:54:02.062Z,10.80
2023-01-11T18:56:28.532Z,15.23
2023-01-11T18:58:54.892Z,10.55
2023-01-11T19:01:21.332Z,12.43
2023-01-11T19:03:48.247Z,10.38
2023-01-11T19:06:15.096Z,14.02
2023-01-11T19:08:41.530Z,15.52
2023-01-11T19:11:07.977Z,20.50
2023-01-11T19:13:35.317Z,22.83
2023-01-11T19:16:01.980Z,14.32
2023-01-11T19:18:29.287Z,25.38
2023-01-11T19:21:01.678Z,23.23
2023-01-11T19:23:28.054Z,10.90
2023-01-11T19:25:58.348Z,11.20
2023-01-11T19:28:24.753Z,14.95
2023-01-11T19:30:51.257Z,12.80
2023-01-11T19:33:17.888Z,10.90
2023-01-11T19:35:44.424Z,14.27
2023-01-11T19:38:10.958Z,10.52
2023-01-11T19:40:37.357Z,20.23
2023-01-11T19:43:03.758Z,14.32
2023-01-11T19:45:30.575Z,15.55
2023-01-11T19:47:58.277Z,17.85
2023-01-11T19:50:24.682Z,19.20
2023-01-11T19:52:51.486Z,15.38
2023-01-11T19:55:18.017Z,16.05
2023-01-11T19:57:44.945Z,13.38
2023-01-11T20:00:14.301Z,16.10
2023-01-11T20:02:41.284Z,14.35
2023-01-11T20:05:07.883Z,11.68
2023-01-11T20:07:38.579Z,9.32
2023-01-11T20:10:05.369Z,24.98
2023-01-11T20:12:31.751Z,15.60
2023-01-11T20:15:01.163Z,10.27
2023-01-11T20:17:28.229Z,11.85
2023-01-11T20:19:55.052Z,15.48
2023-01-11T20:22:23.200Z,17.73
2023-01-11T20:24:50.078Z,15.63
2023-01-11T20:27:16.571Z,12.00
2023-01-11T20:29:45.782Z,13.57
2023-01-11T20:32:34.883Z,17.92
2023-01-11T20:34:59.729Z,12.23
2023-01-11T20:37:26.277Z,15.23
2023-01-11T20:39:52.668Z,9.82
2023-01-11T20:42:19.063Z,15.73
2023-01-11T20:44:45.571Z,13.23
2023-01-11T20:47:12.399Z,9.68
2023-01-11T20:49:38.804Z,16.08
2023-01-11T20:52:05.610Z,12.32
2023-01-11T20:54:32.062Z,21.90
2023-01-11T20:57:03.375Z,8.38
2023-01-11T20:59:32.166Z,20.45
2023-01-11T21:01:58.587Z,11.48
2023-01-11T21:04:24.981Z,13.45
2023-01-11T21:06:51.429Z,14.13
2023-01-11T21:09:18.921Z,11.18
2023-01-11T21:11:52.449Z,7.70
2023-01-11T21:14:19.309Z,10.20
2023-01-11T21:16:48.878Z,9.80
2023-01-11T21:19:16.002Z,12.85
2023-01-11T21:21:43.150Z,7.97
2023-01-11T21:24:13.140Z,13.48
2023-01-11T21:26:40.211Z,13.00
2023-01-11T21:29:06.654Z,11.63
2023-01-11T21:31:35.209Z,12.48
2023-01-11T21:34:01.933Z,14.57
2023-01-11T21:36:30.759Z,11.15
2023-01-11T21:38:58.959Z,7.82
2023-01-11T21:41:46.685Z,9.50
2023-01-11T21:44:14.262Z,9.13
2023-01-11T21:46:41.220Z,8.02
2023-01-11T21:49:08.169Z,9.63
2023-01-11T21:51:35.013Z,9.65
2023-01-11T21:54:05.598Z,14.40
2023-01-11T21:56:32.791Z,14.98
2023-01-11T21:58:59.380Z,10.15
2023-01-11T22:01:25.965Z,10.00
2023-01-11T22:03:52.862Z,11.80
2023-01-11T22:06:19.325Z,11.18
2023-01-11T22:08:46.376Z,16.50
2023-01-11T22:11:15.159Z,10.63
2023-01-11T22:13:42.029Z,8.82
2023-01-11T22:16:16.583Z,9.35
2023-01-11T22:18:43.753Z,12.50
2023-01-11T22:21:17.962Z,24.13
2023-01-11T22:23:46.348Z,13.65
2023-01-11T22:26:15.185Z,22.70
2023-01-11T22:29:03.666Z,19.20
2023-01-11T22:31:31.722Z,18.90
2023-01-11T22:33:59.479Z,8.70
2023-01-11T22:36:27.156Z,8.80
2023-01-11T22:38:54.383Z,11.75
2023-01-11T22:41:21.552Z,12.88
2023-01-11T22:43:48.236Z,15.90
2023-01-11T22:46:18.315Z,10.05
2023-01-11T22:48:46.868Z,12.18
2023-01-11T22:51:14.344Z,12.80
2023-01-11T22:53:42.963Z,9.45
2023-01-11T22:56:12.073Z,16.10
2023-01-11T22:58:38.453Z,12.85
2023-01-11T23:01:15.235Z,14.20
2023-01-11T23:03:42.602Z,10.75
2023-01-11T23:06:09.845Z,9.55
2023-01-11T23:08:43.624Z,11.20
2023-01-11T23:11:37.348Z,12.23
2023-01-11T23:14:05.919Z,7.57
2023-01-11T23:16:32.910Z,9.20
2023-01-11T23:18:59.722Z,10.98
2023-01-11T23:21:26.660Z,9.77
2023-01-11T23:23:53.532Z,15.77
2023-01-11T23:26:21.208Z,9.98
2023-01-11T23:28:49.481Z,13.00
2023-01-11T23:31:19.283Z,15.57
2023-01-11T23:33:54.118Z,7.68
2023-01-11T23:36:22.555Z,12.02
2023-01-11T23:38:49.668Z,14.15
2023-01-11T23:41:37.006Z,15.93
2023-01-11T23:44:09.204Z,16.30
2023-01-11T23:46:55.124Z,9.70
2023-01-11T23:49:21.975Z,16.73
2023-01-11T23:51:48.626Z,14.93
2023-01-11T23:54:15.014Z,22.02
2023-01-11T23:56:42.069Z,8.65
2023-01-11T23:59:08.745Z,11.13
